Aérodrome :
LOGIN :

S'inscrire | Disclaimer

   EN    FR    IT 

 










Légende :    VFR   VFR Marginal   IFR   IFR Intensif   IFR Très Intensif
Visi : 
Plafond : 
>= 8 km
>= 3000ft
5 à 8 km
1000 à 3000 ft
1500m à 5 km
500 à 1000 ft
800 à 1500m
200 à 500 ft
< 800m
< 200 ft
Symboles :   Orages  Brouillard  Fortes neiges  Fortes précipitations  Vent > 20 kt
SIGMETs :   Divers  Orages  Givrage  Turbulence  Onde Orograph.  Cendres Volcan.







- Altitude de l'aérodrome : 464 ft
- Code IATA : EVX
- Voir les cartes d'approche


LFOE - Evreux

DERNIER METAR :
  • 180630Z AUTO 20004KT 9999 -RA SCT006/// BKN014/// OVC029/// ///TCU 18/17 Q1014

METARs EXPIRÉS :
  • 180600Z AUTO 19005KT 9999 -RA FEW014 OVC094 18/17 Q1014
  • 180530Z AUTO 19005KT 9999 -RA SCT016 SCT047 OVC098 17/17 Q1014
  • 180500Z AUTO 20004KT 9999 -RA FEW013 OVC100 17/17 Q1014
  • 180430Z AUTO 20003KT 9999 -RA FEW033/// OVC100/// ///TCU 18/17 Q1014
  • 180400Z AUTO 22005KT 9999 RA FEW048/// OVC100/// ///TCU 18/17 Q1014

TAF AMD TAF LFOE
Valide du 18 à 05h jusqu'au 19 à 03h UTC


180530Z 1805/1903 21010KT 9999 SCT015 BKN030
TEMPO 1805/1808 4000 RA SCT006 BKN015TCU
BECMG 1809/1812 27010G20KT SCT030
TEMPO 1808/1816 3000 SHRA BKN025TCU
Pas de NOTAMs connus pour ce terrain.



MET'MAP, la Météo Aéronautique d'un coup d'oeil ! - Copyright ORBIFLY Décembre 2007 - Disclaimer

ORBIFLY MET'MAP TEAM :

Programmation & Développement : Alexandra Zaïnal
Conception & Développement : Baudouin d'Aumeries
Co-Programmation & Développement : Marc-Olivier Méhu
Soutien technique & logistique : Manuel Goepfert

Contact : metmap@orbifly.com




SOURCES & CREDITS :

   NOAA